Time;durP1;ratioP1;P1;durP2;ratioP2;P2;SDS_P1;SDS_P2;PMS_P1;PMS_P2;Temp;Humidity;BMP_temperature;BMP_pressure;BME280_temperature;BME280_humidity;BME280_pressure;Samples;Min_cycle;Max_cycle;Signal;HPM_P1;HPM_P2
2022/01/17 00:02:25;;;;;;;30.27;14.10;;;-1.90;99.90;;;;;;5076600;28;20063;-91
2022/01/17 00:04:51;;;;;;;21.17;10.45;;;-1.90;99.90;;;;;;5076903;28;20132;-91
2022/01/17 00:07:17;;;;;;;19.95;11.07;;;-2.00;99.90;;;;;;5076691;28;20526;-90
2022/01/17 00:09:43;;;;;;;19.40;10.25;;;-1.90;99.90;;;;;;5076590;28;20063;-91
2022/01/17 00:12:10;;;;;;;18.80;9.10;;;-1.90;99.90;;;;;;5077561;28;20052;-91
2022/01/17 00:14:40;;;;;;;16.05;8.98;;;-2.00;99.90;;;;;;5077499;28;20466;-90
2022/01/17 00:19:47;;;;;;;16.17;9.63;;;-2.00;99.90;;;;;;5077711;28;20478;-90
2022/01/17 00:22:15;;;;;;;20.25;9.45;;;-2.00;99.90;;;;;;5076493;28;20036;-91
2022/01/17 00:24:41;;;;;;;22.88;9.35;;;-2.00;99.90;;;;;;5076520;28;20021;-91
2022/01/17 00:27:08;;;;;;;21.92;10.23;;;-2.00;99.90;;;;;;5076295;28;20027;-91
2022/01/17 00:29:33;;;;;;;21.00;9.18;;;-2.00;99.90;;;;;;5076219;28;20016;-91
2022/01/17 00:31:59;;;;;;;16.90;9.32;;;-2.10;99.90;;;;;;5060270;28;20048;-90
2022/01/17 00:34:25;;;;;;;18.95;9.55;;;-2.00;99.90;;;;;;5079926;28;20119;-90
2022/01/17 00:36:51;;;;;;;19.90;9.55;;;-2.10;99.90;;;;;;5096375;28;20024;-90
2022/01/17 00:39:17;;;;;;;16.20;8.35;;;-2.10;99.90;;;;;;5096385;28;20462;-90
2022/01/17 00:41:43;;;;;;;19.25;9.35;;;-2.10;99.90;;;;;;5097037;28;20523;-92
2022/01/17 00:44:09;;;;;;;18.48;9.55;;;-2.10;99.90;;;;;;5096111;28;20028;-91
2022/01/17 00:46:35;;;;;;;16.73;9.68;;;-2.10;99.90;;;;;;5095880;28;20394;-91
2022/01/17 00:49:02;;;;;;;22.15;10.70;;;-2.20;99.90;;;;;;5076028;28;20099;-90
2022/01/17 00:51:28;;;;;;;19.83;10.63;;;-2.10;99.90;;;;;;5076012;28;20112;-90
2022/01/17 00:53:54;;;;;;;21.20;10.10;;;-2.10;99.90;;;;;;5075743;28;20071;-91
2022/01/17 00:56:21;;;;;;;20.17;10.85;;;-2.10;99.90;;;;;;5076354;28;20017;-91
2022/01/17 00:58:47;;;;;;;25.00;10.43;;;-2.10;99.90;;;;;;5075788;28;20386;-91
2022/01/17 01:01:12;;;;;;;21.17;9.95;;;-2.10;99.90;;;;;;5075953;28;20020;-90
2022/01/17 01:03:38;;;;;;;21.52;11.15;;;-2.10;99.90;;;;;;5076235;28;20070;-90
2022/01/17 01:06:05;;;;;;;20.42;9.43;;;-2.00;99.90;;;;;;5086226;28;20489;-90
2022/01/17 01:08:31;;;;;;;21.08;9.68;;;-2.10;99.90;;;;;;5079011;28;20035;-90
2022/01/17 01:10:57;;;;;;;19.60;9.23;;;-2.10;99.90;;;;;;5095780;28;20382;-91
2022/01/17 01:13:24;;;;;;;16.70;8.95;;;-2.10;99.90;;;;;;5094250;28;20115;-91
2022/01/17 01:21:22;;;;;;;22.10;10.60;;;-2.10;99.90;;;;;;5096864;28;20103;-91
2022/01/17 01:29:15;;;;;;;18.65;10.18;;;-2.20;99.90;;;;;;5076615;28;20036;-90
2022/01/17 01:31:47;;;;;;;23.05;9.82;;;-2.30;99.90;;;;;;5091844;28;20044;-91
2022/01/17 01:34:13;;;;;;;18.45;9.93;;;-2.30;99.90;;;;;;5075523;28;20082;-90
2022/01/17 01:36:39;;;;;;;21.25;10.57;;;-2.30;99.90;;;;;;5076150;28;20013;-91
2022/01/17 01:39:06;;;;;;;22.17;9.93;;;-2.30;99.90;;;;;;5091412;28;20082;-90
2022/01/17 01:41:43;;;;;;;21.70;10.50;;;-2.40;99.90;;;;;;5075689;28;20021;-90
2022/01/17 01:44:13;;;;;;;20.98;10.20;;;-2.40;99.90;;;;;;5088271;28;20035;-91
2022/01/17 01:46:40;;;;;;;27.33;12.98;;;-2.40;99.90;;;;;;5095921;28;20351;-90
2022/01/17 01:49:06;;;;;;;23.70;10.35;;;-2.50;99.90;;;;;;5094868;28;20028;-91
2022/01/17 01:51:31;;;;;;;20.52;10.63;;;-2.50;99.90;;;;;;5095056;28;20138;-90
2022/01/17 01:53:57;;;;;;;22.70;10.98;;;-2.50;99.90;;;;;;5095221;28;20039;-90
2022/01/17 01:56:23;;;;;;;22.50;11.35;;;-2.50;99.90;;;;;;5095264;28;20470;-91
2022/01/17 01:58:48;;;;;;;24.67;11.77;;;-2.50;99.90;;;;;;5081979;28;20052;-91
2022/01/17 02:01:14;;;;;;;22.90;11.02;;;-2.50;99.90;;;;;;5074432;28;20021;-90
2022/01/17 02:03:39;;;;;;;28.20;13.27;;;-2.50;99.90;;;;;;5074262;28;20490;-90
2022/01/17 02:06:05;;;;;;;21.55;11.65;;;-2.50;99.90;;;;;;5074789;28;20067;-90
2022/01/17 02:08:31;;;;;;;19.33;9.77;;;-2.50;99.90;;;;;;5074250;28;20028;-91
2022/01/17 02:10:58;;;;;;;18.02;9.23;;;-2.50;99.90;;;;;;5074186;28;20074;-90
2022/01/17 02:13:25;;;;;;;21.77;9.48;;;-2.50;99.90;;;;;;5085480;28;20048;-91
2022/01/17 02:15:59;;;;;;;20.15;10.82;;;-2.50;99.90;;;;;;5094172;28;20024;-91
2022/01/17 02:18:30;;;;;;;20.75;10.05;;;-2.50;99.90;;;;;;5094966;28;20374;-90
2022/01/17 02:23:42;;;;;;;17.77;9.38;;;-2.50;99.90;;;;;;5096320;28;20048;-90
2022/01/17 02:26:08;;;;;;;24.15;10.43;;;-2.50;99.90;;;;;;5094708;28;20016;-90
2022/01/17 02:28:36;;;;;;;22.58;10.52;;;-2.50;99.90;;;;;;5093615;28;20024;-91
2022/01/17 02:31:06;;;;;;;21.42;11.07;;;-2.50;99.90;;;;;;5094168;28;20027;-90
2022/01/17 02:33:35;;;;;;;21.42;10.80;;;-2.50;99.90;;;;;;5094264;28;20130;-90
2022/01/17 02:36:02;;;;;;;19.10;10.57;;;-2.60;99.90;;;;;;5094082;28;20024;-91
2022/01/17 02:38:28;;;;;;;19.70;9.85;;;-2.60;99.90;;;;;;5094219;28;20028;-90
2022/01/17 02:40:55;;;;;;;22.70;10.40;;;-2.60;99.90;;;;;;5095236;28;20020;-90
2022/01/17 02:43:22;;;;;;;20.13;10.38;;;-2.60;99.90;;;;;;5078876;28;20028;-91
2022/01/17 02:48:22;;;;;;;23.83;11.68;;;-2.50;99.90;;;;;;5094038;28;20024;-90
2022/01/17 02:50:48;;;;;;;28.92;13.18;;;-2.50;99.90;;;;;;5087081;28;20021;-90
2022/01/17 02:53:14;;;;;;;29.65;15.27;;;-2.50;99.90;;;;;;5053490;28;20048;-90
2022/01/17 02:55:49;;;;;;;23.95;11.57;;;-2.50;99.90;;;;;;5070312;28;20025;-91
2022/01/17 02:58:17;;;;;;;23.00;11.95;;;-2.50;99.90;;;;;;5053770;28;20017;-91
2022/01/17 03:00:43;;;;;;;23.05;10.48;;;-2.40;99.90;;;;;;5061489;28;20013;-90
2022/01/17 03:03:17;;;;;;;23.70;11.07;;;-2.40;99.90;;;;;;5073686;28;20462;-91
2022/01/17 03:05:43;;;;;;;24.92;10.07;;;-2.40;99.90;;;;;;5074161;28;20351;-91
2022/01/17 03:08:09;;;;;;;24.42;11.07;;;-2.30;99.90;;;;;;5073762;28;20111;-90
2022/01/17 03:10:44;;;;;;;20.02;11.07;;;-2.30;99.90;;;;;;5073325;28;20025;-90
2022/01/17 03:13:19;;;;;;;26.42;11.15;;;-2.30;99.90;;;;;;5073218;28;20111;-90
2022/01/17 03:15:55;;;;;;;26.30;10.90;;;-2.30;99.90;;;;;;5073516;28;20021;-91
2022/01/17 03:18:21;;;;;;;25.45;11.32;;;-2.30;99.90;;;;;;5073620;28;20134;-90
2022/01/17 03:20:47;;;;;;;21.08;9.98;;;-2.20;99.90;;;;;;5073441;28;20024;-90
2022/01/17 03:23:17;;;;;;;29.13;12.40;;;-2.20;99.90;;;;;;5075313;28;20017;-90
2022/01/17 03:25:43;;;;;;;23.52;11.35;;;-2.10;99.90;;;;;;5079325;28;20047;-90
2022/01/17 03:28:09;;;;;;;21.48;11.15;;;-2.10;99.90;;;;;;5091803;28;20020;-90
2022/01/17 03:30:35;;;;;;;20.42;10.73;;;-2.10;99.90;;;;;;5086847;28;20025;-90
2022/01/17 03:33:08;;;;;;;24.20;11.48;;;-2.00;99.90;;;;;;5072730;28;20097;-90
2022/01/17 03:35:36;;;;;;;22.67;10.63;;;-2.00;99.90;;;;;;5073601;28;20055;-90
2022/01/17 03:38:03;;;;;;;22.77;11.75;;;-2.00;99.90;;;;;;5090305;28;20033;-90
2022/01/17 03:40:29;;;;;;;22.40;11.48;;;-1.90;99.90;;;;;;5073280;28;20035;-90
2022/01/17 03:42:54;;;;;;;24.40;11.45;;;-1.80;99.90;;;;;;5072895;28;20028;-90
2022/01/17 03:45:20;;;;;;;30.00;12.27;;;-1.80;99.90;;;;;;5073949;28;20028;-90
2022/01/17 03:47:50;;;;;;;27.33;11.80;;;-1.80;99.90;;;;;;5072865;28;20024;-91
2022/01/17 03:50:23;;;;;;;29.95;13.85;;;-1.70;99.90;;;;;;5073714;28;20052;-90
2022/01/17 03:52:49;;;;;;;40.30;18.35;;;-1.70;99.90;;;;;;5073810;28;20068;-90
2022/01/17 03:55:18;;;;;;;24.95;13.38;;;-1.70;99.90;;;;;;5072917;28;20024;-90
2022/01/17 03:57:44;;;;;;;44.38;19.83;;;-1.60;99.90;;;;;;5090176;28;20529;-91
2022/01/17 04:00:13;;;;;;;28.65;13.93;;;-1.60;99.90;;;;;;5079622;28;20028;-90
2022/01/17 04:02:40;;;;;;;31.63;15.25;;;-1.60;99.90;;;;;;5091504;28;20085;-90
2022/01/17 04:05:06;;;;;;;28.38;12.85;;;-1.60;99.90;;;;;;5092806;28;20024;-91
2022/01/17 04:07:32;;;;;;;25.73;12.13;;;-1.50;99.90;;;;;;5093630;28;20048;-90
2022/01/17 04:09:58;;;;;;;22.55;11.50;;;-1.50;99.90;;;;;;5093051;28;20474;-91
2022/01/17 04:12:23;;;;;;;22.25;11.30;;;-1.40;99.90;;;;;;5076813;28;20036;-90
2022/01/17 04:14:54;;;;;;;24.20;11.98;;;-1.40;99.90;;;;;;5074040;28;20020;-90
2022/01/17 04:17:20;;;;;;;25.05;12.05;;;-1.30;99.90;;;;;;5072854;28;20023;-90
2022/01/17 04:19:52;;;;;;;25.42;12.45;;;-1.30;99.90;;;;;;5090512;28;20024;-89
2022/01/17 04:22:17;;;;;;;19.98;11.55;;;-1.20;99.90;;;;;;5073346;28;20040;-90
2022/01/17 04:24:43;;;;;;;34.95;12.35;;;-1.20;99.90;;;;;;5081127;28;20024;-90
2022/01/17 04:27:09;;;;;;;27.10;12.10;;;-1.10;99.90;;;;;;5074838;28;20082;-89
2022/01/17 04:29:35;;;;;;;27.98;12.10;;;-1.10;99.90;;;;;;5072293;28;20353;-90
2022/01/17 04:32:02;;;;;;;26.13;11.90;;;-1.10;99.90;;;;;;5072062;28;20059;-89
2022/01/17 04:34:27;;;;;;;29.90;12.38;;;-1.10;99.90;;;;;;5073768;28;20017;-90
2022/01/17 04:36:53;;;;;;;28.42;12.75;;;-1.00;99.90;;;;;;5072251;28;20032;-90
2022/01/17 04:39:20;;;;;;;26.10;11.88;;;-1.00;99.90;;;;;;5074174;28;20112;-90
2022/01/17 04:41:45;;;;;;;33.03;12.13;;;-1.00;99.90;;;;;;5076108;28;20027;-90
2022/01/17 04:46:55;;;;;;;27.27;14.07;;;-1.00;99.90;;;;;;5076819;28;20040;-90
2022/01/17 04:49:21;;;;;;;32.72;15.95;;;-1.00;99.90;;;;;;5076241;28;20029;-89
2022/01/17 04:51:53;;;;;;;27.33;13.93;;;-0.90;99.90;;;;;;5075562;28;20115;-90
2022/01/17 04:57:03;;;;;;;33.20;15.35;;;-1.00;99.90;;;;;;5077381;28;20040;-90
2022/01/17 04:59:29;;;;;;;33.33;14.75;;;-1.00;99.90;;;;;;5076020;28;20016;-90
2022/01/17 05:01:54;;;;;;;32.78;14.15;;;-1.00;99.90;;;;;;5076284;28;20029;-89
2022/01/17 05:04:20;;;;;;;30.67;14.38;;;-1.00;99.90;;;;;;5075697;28;20024;-90
2022/01/17 05:06:46;;;;;;;31.45;15.32;;;-1.00;99.90;;;;;;5075470;28;20043;-90
2022/01/17 05:09:11;;;;;;;35.05;15.52;;;-1.00;99.90;;;;;;5075695;28;20484;-90
2022/01/17 05:11:37;;;;;;;34.17;16.33;;;-1.00;99.90;;;;;;5059065;28;20029;-91
2022/01/17 05:14:03;;;;;;;38.58;16.77;;;-1.00;99.90;;;;;;5075242;28;20062;-90
2022/01/17 05:16:36;;;;;;;34.17;14.88;;;-1.00;99.90;;;;;;5087787;28;20028;-90
2022/01/17 05:21:46;;;;;;;36.78;16.25;;;-0.90;99.90;;;;;;5075978;28;20047;-91
2022/01/17 05:24:12;;;;;;;36.95;16.40;;;-0.90;99.90;;;;;;5076301;28;20024;-92
2022/01/17 05:26:59;;;;;;;37.88;17.70;;;-0.90;99.90;;;;;;5076755;28;20028;-93
2022/01/17 05:29:25;;;;;;;35.88;17.15;;;-0.90;99.90;;;;;;5075359;28;20083;-93
2022/01/17 05:31:51;;;;;;;38.25;18.95;;;-0.90;99.90;;;;;;5074906;28;20052;-93
2022/01/17 05:34:16;;;;;;;38.25;17.95;;;-0.90;99.90;;;;;;5075088;28;20029;-93
2022/01/17 05:36:42;;;;;;;36.90;17.35;;;-0.90;99.90;;;;;;5075195;28;20379;-93
2022/01/17 05:39:09;;;;;;;29.77;15.57;;;-0.90;99.90;;;;;;5075206;28;20017;-94
2022/01/17 05:41:35;;;;;;;24.45;13.90;;;-0.80;99.90;;;;;;5075329;28;20179;-93
2022/01/17 05:44:00;;;;;;;29.15;13.07;;;-0.80;99.90;;;;;;5093722;28;20062;-96
2022/01/17 05:46:26;;;;;;;28.27;13.07;;;-0.80;99.90;;;;;;5074947;28;20128;-94
2022/01/17 05:48:52;;;;;;;27.70;13.20;;;-0.80;99.90;;;;;;5074684;28;20017;-94
2022/01/17 05:51:18;;;;;;;25.38;12.98;;;-0.70;99.90;;;;;;5086067;28;20518;-94
2022/01/17 14:34:33;;;;;;;31.48;14.18;;;1.40;99.90;;;;;;5088084;28;20708;-91
2022/01/17 14:37:07;;;;;;;33.28;15.38;;;1.40;99.90;;;;;;5070441;28;20021;-91
2022/01/17 14:39:44;;;;;;;30.30;14.57;;;1.40;99.90;;;;;;5070855;28;20029;-91
2022/01/17 14:42:18;;;;;;;29.17;15.60;;;1.40;99.90;;;;;;5070408;28;20028;-91
2022/01/17 14:44:46;;;;;;;29.75;15.02;;;1.40;99.90;;;;;;5070401;28;20455;-90
2022/01/17 14:47:16;;;;;;;27.98;15.50;;;1.50;99.90;;;;;;5070914;28;20033;-91
2022/01/17 14:49:48;;;;;;;27.87;15.07;;;1.50;99.90;;;;;;5075132;28;20191;-91
2022/01/17 14:52:23;;;;;;;32.40;16.55;;;1.60;99.90;;;;;;5078310;28;20545;-92
2022/01/17 14:55:16;;;;;;;27.60;15.10;;;1.60;99.90;;;;;;5070370;28;20025;-91
2022/01/17 15:03:29;;;;;;;24.70;14.27;;;1.80;99.90;;;;;;5069210;28;20484;-92
2022/01/17 15:05:55;;;;;;;26.92;15.13;;;1.80;99.90;;;;;;5088577;28;20025;-90
2022/01/17 15:08:21;;;;;;;34.25;18.08;;;1.90;99.90;;;;;;5090327;28;20394;-90
2022/01/17 15:10:48;;;;;;;34.10;16.73;;;1.90;99.90;;;;;;5090483;28;20028;-91
2022/01/17 15:13:14;;;;;;;37.42;19.00;;;1.80;99.90;;;;;;5090299;28;20043;-89
2022/01/17 15:15:43;;;;;;;34.13;17.30;;;1.80;99.90;;;;;;5090203;28;20020;-89
2022/01/17 15:18:11;;;;;;;80.82;31.73;;;1.80;99.90;;;;;;5090441;28;20020;-91
2022/01/17 15:20:38;;;;;;;45.17;20.85;;;1.80;99.90;;;;;;5072270;28;20051;-89
2022/01/17 15:23:08;;;;;;;43.97;21.50;;;1.70;99.90;;;;;;5069902;28;20040;-93
2022/01/17 15:25:33;;;;;;;29.83;16.65;;;1.70;99.90;;;;;;5073530;28;20382;-93
2022/01/17 15:28:00;;;;;;;35.42;17.60;;;1.60;99.90;;;;;;5090094;28;20031;-94
2022/01/17 15:30:32;;;;;;;37.08;18.70;;;1.50;99.90;;;;;;5086139;28;20039;-89
2022/01/17 15:32:58;;;;;;;35.83;17.25;;;1.50;99.90;;;;;;5072318;28;20045;-89
2022/01/17 15:35:28;;;;;;;34.03;17.33;;;1.40;99.90;;;;;;5070499;28;20021;-89
2022/01/17 15:37:55;;;;;;;30.90;16.88;;;1.40;99.90;;;;;;5069387;28;20031;-89
2022/01/17 15:40:21;;;;;;;38.75;18.05;;;1.30;99.90;;;;;;5074835;28;20473;-90
2022/01/17 15:42:48;;;;;;;37.50;18.92;;;1.30;99.90;;;;;;5080217;28;20533;-89
2022/01/17 15:45:14;;;;;;;39.38;18.38;;;1.20;99.90;;;;;;5066303;28;20029;-89
2022/01/17 15:47:40;;;;;;;33.28;16.77;;;1.20;99.90;;;;;;5055886;28;20553;-91
2022/01/17 15:50:07;;;;;;;34.88;17.55;;;1.20;99.90;;;;;;5070329;28;20052;-91
2022/01/17 15:52:32;;;;;;;32.17;16.40;;;1.10;99.90;;;;;;5071744;28;20111;-91
2022/01/17 15:54:58;;;;;;;33.95;16.25;;;1.10;99.90;;;;;;5072907;28;20083;-91
2022/01/17 15:57:24;;;;;;;35.30;17.65;;;1.10;99.90;;;;;;5075889;28;20020;-90
2022/01/17 15:59:50;;;;;;;40.55;19.08;;;1.00;99.90;;;;;;5073747;28;20029;-89
2022/01/17 16:02:16;;;;;;;35.90;18.75;;;1.00;99.90;;;;;;5059837;28;20024;-90
2022/01/17 16:04:42;;;;;;;40.40;19.27;;;1.00;99.90;;;;;;5075774;28;20027;-89
2022/01/17 16:07:08;;;;;;;35.08;17.33;;;1.00;99.90;;;;;;5075943;28;20021;-90
2022/01/17 16:09:34;;;;;;;38.67;18.38;;;1.00;99.90;;;;;;5073890;28;20386;-90
2022/01/17 16:12:00;;;;;;;37.15;17.35;;;0.90;99.90;;;;;;5070006;28;20027;-91
2022/01/17 16:14:27;;;;;;;38.40;18.58;;;0.90;99.90;;;;;;5055641;28;20045;-91
2022/01/17 16:16:53;;;;;;;38.13;19.08;;;0.90;99.90;;;;;;5069408;28;20017;-91
2022/01/17 16:19:19;;;;;;;38.20;18.92;;;0.90;99.90;;;;;;5055263;28;20032;-89
2022/01/17 16:21:45;;;;;;;46.35;19.27;;;0.90;99.90;;;;;;5057468;28;20147;-89
2022/01/17 16:24:11;;;;;;;38.15;18.95;;;0.90;99.90;;;;;;5055294;28;20053;-90
2022/01/17 16:26:37;;;;;;;37.17;18.92;;;0.90;99.90;;;;;;5056477;28;20099;-90
2022/01/17 16:29:04;;;;;;;37.90;19.13;;;0.90;99.90;;;;;;5057212;28;20036;-90
2022/01/17 16:31:30;;;;;;;36.80;18.75;;;0.90;99.90;;;;;;5054612;28;20029;-90
2022/01/17 16:33:56;;;;;;;37.67;18.77;;;0.90;99.90;;;;;;5054708;28;20051;-90
2022/01/17 16:36:23;;;;;;;42.28;19.83;;;0.90;99.90;;;;;;5055020;28;20017;-90
2022/01/17 16:38:49;;;;;;;40.78;19.65;;;0.90;99.90;;;;;;5055152;28;20043;-89
2022/01/17 16:41:15;;;;;;;38.80;21.00;;;0.90;99.90;;;;;;5055170;28;20470;-91
2022/01/17 16:43:43;;;;;;;34.25;18.02;;;1.00;99.90;;;;;;5063983;28;20466;-91
2022/01/17 16:46:10;;;;;;;33.63;17.42;;;0.90;99.90;;;;;;5074960;28;20035;-90
2022/01/17 16:48:37;;;;;;;38.03;18.92;;;1.00;99.90;;;;;;5068151;28;20441;-91
2022/01/17 16:51:03;;;;;;;33.28;17.60;;;0.90;99.90;;;;;;5054529;28;20031;-90
2022/01/17 16:53:29;;;;;;;39.70;18.05;;;0.90;99.90;;;;;;5054580;28;20501;-91
2022/01/17 16:55:55;;;;;;;33.55;16.98;;;0.90;99.90;;;;;;5053712;28;20025;-90
2022/01/17 16:58:23;;;;;;;36.83;17.00;;;0.90;99.90;;;;;;5054351;28;20025;-89
2022/01/17 17:00:50;;;;;;;33.30;16.25;;;0.90;99.90;;;;;;5054887;28;20474;-90
2022/01/17 17:03:16;;;;;;;30.65;15.35;;;0.80;99.90;;;;;;5054452;28;20048;-90
2022/01/17 17:05:41;;;;;;;29.92;16.85;;;0.80;99.90;;;;;;5065153;28;20028;-88
2022/01/17 17:08:07;;;;;;;27.52;15.57;;;0.80;99.90;;;;;;5064953;28;20055;-91
2022/01/17 17:10:35;;;;;;;28.33;14.75;;;0.80;99.90;;;;;;5054312;28;20467;-91
2022/01/17 17:13:02;;;;;;;26.50;14.25;;;0.80;99.90;;;;;;5054981;28;20562;-91
2022/01/17 17:15:28;;;;;;;32.80;16.05;;;0.80;99.90;;;;;;5054280;28;20065;-89
2022/01/17 17:17:54;;;;;;;29.17;15.57;;;0.80;99.90;;;;;;5055890;28;20075;-91
2022/01/17 17:20:20;;;;;;;28.35;14.88;;;0.80;99.90;;;;;;5055444;28;20048;-91
2022/01/17 17:22:46;;;;;;;29.75;16.25;;;0.80;99.90;;;;;;5066792;28;20048;-91
2022/01/17 17:25:12;;;;;;;24.50;14.27;;;0.80;99.90;;;;;;5055274;28;20394;-91
2022/01/17 17:27:39;;;;;;;27.23;15.05;;;0.80;99.90;;;;;;5055324;28;20025;-92
2022/01/17 17:30:08;;;;;;;26.23;14.43;;;0.80;99.90;;;;;;5060893;28;20024;-90
2022/01/17 17:32:34;;;;;;;26.67;15.05;;;0.90;99.90;;;;;;5053907;28;20084;-91
2022/01/17 17:35:00;;;;;;;24.08;14.05;;;0.90;99.90;;;;;;5053950;28;20095;-90
2022/01/17 17:37:25;;;;;;;22.10;13.15;;;0.90;99.90;;;;;;5064735;28;20130;-91
2022/01/17 17:39:51;;;;;;;28.70;14.18;;;0.80;99.90;;;;;;5054634;28;20029;-90
2022/01/17 17:42:17;;;;;;;27.52;15.85;;;0.90;99.90;;;;;;5055048;28;20021;-91
2022/01/17 17:44:44;;;;;;;28.27;14.18;;;0.90;99.90;;;;;;5053980;28;20032;-89
2022/01/17 17:47:12;;;;;;;26.23;14.50;;;0.90;99.90;;;;;;5053585;28;20028;-88
2022/01/17 17:49:38;;;;;;;26.42;14.93;;;0.90;99.90;;;;;;5053781;28;20082;-89
2022/01/17 17:52:04;;;;;;;27.10;14.57;;;0.90;99.90;;;;;;5053618;28;20360;-89
2022/01/17 17:54:31;;;;;;;25.02;14.05;;;0.90;99.90;;;;;;5053489;28;20048;-87
2022/01/17 17:57:08;;;;;;;23.25;14.30;;;0.90;99.90;;;;;;5053537;28;20028;-87
2022/01/17 17:59:34;;;;;;;24.20;13.85;;;0.80;99.90;;;;;;5053588;28;20116;-88
2022/01/17 18:02:00;;;;;;;23.77;13.05;;;0.80;99.90;;;;;;5053916;28;20017;-86
2022/01/17 18:04:26;;;;;;;22.38;12.75;;;0.80;99.90;;;;;;5069979;28;20029;-87
2022/01/17 18:06:52;;;;;;;21.90;13.27;;;0.80;99.90;;;;;;5053138;28;20107;-86
2022/01/17 18:09:19;;;;;;;23.45;13.82;;;0.90;99.90;;;;;;5053552;28;20029;-86
2022/01/17 18:11:48;;;;;;;25.08;13.43;;;0.80;99.90;;;;;;5053126;28;20032;-86
2022/01/17 18:14:14;;;;;;;20.95;12.45;;;0.90;99.90;;;;;;5053638;28;20021;-86
2022/01/17 18:16:39;;;;;;;21.38;14.00;;;0.90;99.90;;;;;;5053409;28;20021;-87
2022/01/17 18:19:05;;;;;;;19.08;11.98;;;0.90;99.90;;;;;;5054394;28;20029;-87
2022/01/17 18:21:31;;;;;;;22.98;12.57;;;0.80;99.90;;;;;;5054386;28;20075;-88
2022/01/17 18:23:58;;;;;;;20.20;11.52;;;0.90;99.90;;;;;;5054285;28;20352;-89
2022/01/17 18:26:25;;;;;;;21.65;12.02;;;0.90;99.90;;;;;;5054411;28;20532;-88
2022/01/17 18:28:52;;;;;;;19.48;12.20;;;0.90;99.90;;;;;;5054116;28;20028;-88
2022/01/17 18:31:18;;;;;;;18.85;10.63;;;0.90;99.90;;;;;;5073379;28;20032;-88
2022/01/17 18:33:44;;;;;;;23.85;11.10;;;0.90;99.90;;;;;;5067525;28;20076;-92
2022/01/17 18:36:10;;;;;;;19.02;12.20;;;0.90;99.90;;;;;;5072279;28;20031;-88
2022/01/17 18:38:38;;;;;;;22.83;12.32;;;0.90;99.90;;;;;;5070136;28;20096;-88
2022/01/17 18:41:05;;;;;;;21.58;12.13;;;0.80;99.90;;;;;;5066361;28;20024;-90
2022/01/17 18:43:31;;;;;;;19.13;10.57;;;0.80;99.90;;;;;;5057644;28;20040;-92
2022/01/17 18:45:58;;;;;;;20.95;12.15;;;0.90;99.90;;;;;;5059411;28;20093;-90
2022/01/17 18:48:29;;;;;;;23.83;12.88;;;0.90;99.90;;;;;;5058987;28;20083;-92
2022/01/17 18:50:59;;;;;;;24.73;13.40;;;0.80;99.90;;;;;;5053082;28;20107;-89
2022/01/17 18:53:26;;;;;;;;;;;0.90;99.90;;;;;;5081177;28;20479;-89
2022/01/17 18:55:52;;;;;;;24.95;14.18;;;0.90;99.90;;;;;;5049417;28;19943;-87
2022/01/17 18:58:18;;;;;;;22.77;12.10;;;0.90;99.90;;;;;;5073025;28;20048;-88
2022/01/17 19:00:43;;;;;;;27.40;14.77;;;0.90;99.90;;;;;;5055477;28;20421;-92
2022/01/17 19:03:09;;;;;;;28.00;15.48;;;0.90;99.90;;;;;;5067788;28;20032;-90
2022/01/17 19:05:38;;;;;;;29.40;14.75;;;0.90;99.90;;;;;;5056439;28;20071;-87
2022/01/17 19:08:04;;;;;;;22.00;12.15;;;0.90;99.90;;;;;;5053048;28;20029;-90
2022/01/17 19:10:30;;;;;;;22.42;12.38;;;0.90;99.90;;;;;;5054309;28;20025;-88
2022/01/17 19:12:56;;;;;;;37.42;19.33;;;0.90;99.90;;;;;;5057692;28;20029;-88
2022/01/17 19:15:22;;;;;;;22.08;12.63;;;0.90;99.90;;;;;;5059564;28;20034;-94
2022/01/17 19:18:11;;;;;;;22.17;10.65;;;0.90;99.90;;;;;;5052432;28;20021;-86
2022/01/17 19:23:02;;;;;;;31.30;16.25;;;0.90;99.90;;;;;;5055309;28;20090;-94
2022/01/17 19:25:29;;;;;;;25.55;14.05;;;0.90;99.90;;;;;;5057411;28;20052;-88
2022/01/17 19:27:55;;;;;;;24.08;14.85;;;1.00;99.90;;;;;;5055157;28;20037;-87
2022/01/17 19:30:22;;;;;;;19.98;11.40;;;1.00;99.90;;;;;;5041209;28;20391;-88
2022/01/17 19:32:50;;;;;;;17.38;10.68;;;1.00;99.90;;;;;;5036145;28;20057;-94
2022/01/17 19:35:17;;;;;;;57.08;18.80;;;1.00;99.90;;;;;;5043862;28;20021;-92
2022/01/17 19:37:45;;;;;;;23.70;12.50;;;1.00;99.90;;;;;;5051288;28;20081;-87
2022/01/17 19:40:11;;;;;;;30.63;14.73;;;1.00;99.90;;;;;;5053059;28;20025;-89
2022/01/17 19:42:37;;;;;;;24.08;13.35;;;0.90;99.90;;;;;;5066559;28;20166;-94
2022/01/17 19:45:04;;;;;;;29.13;16.75;;;1.00;99.90;;;;;;5076084;28;20115;-89
2022/01/17 19:47:30;;;;;;;21.40;13.82;;;0.90;99.90;;;;;;5075987;28;20035;-88
2022/01/17 19:49:55;;;;;;;22.48;15.18;;;0.90;99.90;;;;;;5076109;28;20025;-88
2022/01/17 19:52:21;;;;;;;13.43;8.25;;;0.90;99.90;;;;;;5075814;28;20472;-89
2022/01/17 19:54:48;;;;;;;10.02;7.13;;;0.90;99.90;;;;;;5075380;28;20044;-92
2022/01/17 19:57:17;;;;;;;13.88;9.90;;;0.90;99.90;;;;;;5075962;28;20024;-92
2022/01/17 19:59:44;;;;;;;21.77;12.85;;;0.90;99.90;;;;;;5074248;28;20077;-88
2022/01/17 20:02:10;;;;;;;31.10;15.70;;;0.90;99.90;;;;;;5077250;28;20112;-86
2022/01/17 20:04:35;;;;;;;21.20;10.93;;;0.80;99.90;;;;;;5074129;28;20294;-91
2022/01/17 20:07:01;;;;;;;49.85;22.35;;;0.80;99.90;;;;;;5075887;28;20040;-86
2022/01/17 20:09:27;;;;;;;33.40;16.75;;;0.80;99.90;;;;;;5075702;28;20029;-88
2022/01/17 20:11:52;;;;;;;16.42;8.35;;;0.80;99.90;;;;;;5075575;28;20116;-89
2022/01/17 20:14:18;;;;;;;17.17;10.10;;;0.80;99.90;;;;;;5075313;28;20028;-87
2022/01/17 20:16:47;;;;;;;10.13;7.30;;;0.70;99.90;;;;;;5075630;28;20024;-87
2022/01/17 20:19:12;;;;;;;7.45;4.82;;;0.80;99.90;;;;;;5073903;28;20021;-89
2022/01/17 20:21:39;;;;;;;6.30;4.50;;;0.70;99.90;;;;;;5075516;28;20043;-90
2022/01/17 20:24:05;;;;;;;6.53;4.45;;;0.70;99.90;;;;;;5075331;28;20102;-90
2022/01/17 20:26:32;;;;;;;6.20;4.18;;;0.70;99.90;;;;;;5073470;28;20040;-89
2022/01/17 20:28:58;;;;;;;6.82;4.80;;;0.70;99.90;;;;;;5075196;28;20028;-88
2022/01/17 20:31:24;;;;;;;7.22;4.50;;;0.70;99.90;;;;;;5074929;28;20059;-90
2022/01/17 20:33:50;;;;;;;7.80;5.00;;;0.70;99.90;;;;;;5072936;28;20506;-90
2022/01/17 20:36:16;;;;;;;8.13;5.20;;;0.70;99.90;;;;;;5036128;28;20110;-90
2022/01/17 20:38:42;;;;;;;13.98;5.85;;;0.70;99.90;;;;;;5071116;28;20021;-90
2022/01/17 20:41:08;;;;;;;10.10;6.00;;;0.70;99.90;;;;;;5060914;28;20074;-90
2022/01/17 20:43:35;;;;;;;8.68;5.22;;;0.60;99.90;;;;;;5074987;28;20036;-90
2022/01/17 20:46:00;;;;;;;10.48;5.50;;;0.70;99.90;;;;;;5074887;28;20027;-87
2022/01/17 20:48:31;;;;;;;9.75;6.07;;;0.70;99.90;;;;;;5074975;28;20028;-91
2022/01/17 20:50:56;;;;;;;8.48;5.55;;;0.60;99.90;;;;;;5074933;28;20032;-92
2022/01/17 20:53:23;;;;;;;14.30;6.63;;;0.60;99.90;;;;;;5064950;28;20033;-91
2022/01/17 20:55:49;;;;;;;10.18;5.15;;;0.60;99.90;;;;;;5054830;28;20056;-92
2022/01/17 20:58:14;;;;;;;13.18;6.28;;;0.60;99.90;;;;;;5054819;28;20029;-91
2022/01/17 21:00:40;;;;;;;13.80;5.95;;;0.70;99.90;;;;;;5054859;28;20029;-91
2022/01/17 21:03:06;;;;;;;9.65;4.45;;;0.60;99.90;;;;;;5054562;28;20047;-92
2022/01/17 21:05:32;;;;;;;10.88;5.13;;;0.60;99.90;;;;;;5055069;28;20032;-92
2022/01/17 21:07:58;;;;;;;10.15;5.07;;;0.50;99.90;;;;;;5061300;28;20028;-91
2022/01/17 21:10:24;;;;;;;10.13;4.78;;;0.50;99.90;;;;;;5074538;28;20032;-92
2022/01/17 21:12:50;;;;;;;8.43;4.20;;;0.40;99.90;;;;;;5074280;28;20028;-90
2022/01/17 21:15:16;;;;;;;5.30;3.60;;;0.40;99.90;;;;;;5074405;28;20086;-90
2022/01/17 21:17:44;;;;;;;13.98;5.88;;;0.30;99.90;;;;;;5074510;28;20425;-93
2022/01/17 21:20:14;;;;;;;9.13;4.18;;;0.30;99.90;;;;;;5074347;28;20027;-89
2022/01/17 21:22:41;;;;;;;10.68;4.60;;;0.30;99.90;;;;;;5074170;28;20119;-92
2022/01/17 21:25:08;;;;;;;15.82;7.65;;;0.20;99.90;;;;;;5073998;28;20033;-89
2022/01/17 21:27:34;;;;;;;8.43;3.58;;;0.20;99.90;;;;;;5074149;28;20112;-91
2022/01/17 21:30:00;;;;;;;5.80;3.45;;;0.20;99.90;;;;;;5073990;28;20535;-92
2022/01/17 21:32:27;;;;;;;6.18;2.40;;;0.20;99.90;;;;;;5074072;28;20048;-89
2022/01/17 21:34:54;;;;;;;5.55;2.28;;;0.20;99.90;;;;;;5074824;28;20032;-90
2022/01/17 21:37:21;;;;;;;4.32;2.60;;;0.20;99.90;;;;;;5066715;28;20025;-92
2022/01/17 21:39:47;;;;;;;4.90;2.10;;;0.20;99.90;;;;;;5055054;28;20108;-91
2022/01/17 21:42:14;;;;;;;3.55;2.10;;;0.20;99.90;;;;;;5054252;28;20053;-91
2022/01/17 21:44:41;;;;;;;4.05;1.77;;;0.20;99.90;;;;;;5053849;28;20028;-89
2022/01/17 21:47:07;;;;;;;3.88;2.80;;;0.20;99.90;;;;;;5053928;28;20053;-91
2022/01/17 21:49:34;;;;;;;5.72;2.40;;;0.20;99.90;;;;;;5053845;28;20025;-93
2022/01/17 21:52:00;;;;;;;6.15;2.90;;;0.20;99.90;;;;;;5053949;28;20040;-91